createdAt,value
2019-06-20T00:02:07.779Z,16.60
2019-06-20T00:04:35.318Z,15.47
2019-06-20T00:07:03.672Z,15.77
2019-06-20T00:09:30.014Z,15.53
2019-06-20T00:11:56.447Z,15.30
2019-06-20T00:14:22.785Z,15.17
2019-06-20T00:16:49.338Z,17.60
2019-06-20T00:19:17.629Z,18.00
2019-06-20T00:21:46.961Z,17.97
2019-06-20T00:24:15.274Z,17.00
2019-06-20T00:26:41.702Z,16.53
2019-06-20T00:29:08.087Z,15.87
2019-06-20T00:31:36.422Z,16.20
2019-06-20T00:34:03.518Z,16.33
2019-06-20T00:36:29.977Z,17.90
2019-06-20T00:38:56.447Z,18.60
2019-06-20T00:41:22.882Z,16.90
2019-06-20T00:43:53.938Z,17.20
2019-06-20T00:46:20.092Z,15.60
2019-06-20T00:48:46.491Z,15.17
2019-06-20T00:51:14.885Z,14.83
2019-06-20T00:53:41.323Z,14.97
2019-06-20T00:56:07.741Z,16.37
2019-06-20T00:58:37.842Z,19.13
2019-06-20T01:01:04.820Z,18.77
2019-06-20T01:03:31.274Z,18.13
2019-06-20T01:05:57.700Z,18.30
2019-06-20T01:08:24.084Z,16.00
2019-06-20T01:10:54.306Z,15.80
2019-06-20T01:13:33.030Z,15.30
2019-06-20T01:15:53.144Z,14.50
2019-06-20T01:18:19.520Z,15.20
2019-06-20T01:20:46.404Z,20.57
2019-06-20T01:23:12.796Z,20.00
2019-06-20T01:25:41.521Z,17.93
2019-06-20T01:28:08.130Z,16.20
2019-06-20T01:30:36.889Z,15.40
2019-06-20T01:33:04.306Z,15.87
2019-06-20T01:35:32.665Z,18.03
2019-06-20T01:37:59.111Z,16.87
2019-06-20T01:40:25.855Z,20.40
2019-06-20T01:42:54.118Z,16.93
2019-06-20T01:45:21.701Z,15.50
2019-06-20T01:47:48.140Z,16.73
2019-06-20T01:50:14.803Z,15.77
2019-06-20T01:52:41.281Z,15.23
2019-06-20T01:55:09.591Z,16.80
2019-06-20T01:57:38.959Z,15.80
2019-06-20T02:00:07.484Z,15.57
2019-06-20T02:02:33.895Z,15.07
2019-06-20T02:05:07.010Z,16.87
2019-06-20T02:07:35.358Z,19.97
2019-06-20T02:10:04.034Z,20.40
2019-06-20T02:12:30.485Z,18.00
2019-06-20T02:15:04.347Z,17.70
2019-06-20T02:17:32.738Z,18.47
2019-06-20T02:20:02.469Z,17.90
2019-06-20T02:22:30.761Z,22.30
2019-06-20T02:24:57.183Z,19.60
2019-06-20T02:27:26.679Z,19.23
2019-06-20T02:29:53.106Z,16.33
2019-06-20T02:32:19.654Z,16.17
2019-06-20T02:34:47.186Z,16.20
2019-06-20T02:37:17.381Z,14.73
2019-06-20T02:39:43.913Z,20.13
2019-06-20T02:42:13.158Z,18.87
2019-06-20T02:44:39.611Z,15.17
2019-06-20T02:47:08.636Z,18.33
2019-06-20T02:49:37.760Z,17.63
2019-06-20T02:52:12.029Z,18.40
2019-06-20T02:54:45.116Z,17.07
2019-06-20T02:57:11.529Z,16.90
2019-06-20T02:59:37.993Z,15.17
2019-06-20T03:02:07.973Z,16.73
2019-06-20T03:04:34.407Z,16.73
2019-06-20T03:07:00.847Z,16.10
2019-06-20T03:09:31.656Z,15.10
2019-06-20T03:11:59.980Z,14.93
2019-06-20T03:14:26.564Z,14.17
2019-06-20T03:16:53.051Z,14.43
2019-06-20T03:19:19.496Z,15.23
2019-06-20T03:21:47.384Z,15.57
2019-06-20T03:24:13.793Z,17.07
2019-06-20T03:26:41.239Z,14.97
2019-06-20T03:29:07.611Z,15.13
2019-06-20T03:31:33.964Z,14.60
2019-06-20T03:34:02.250Z,13.67
2019-06-20T03:36:28.602Z,13.30
2019-06-20T03:38:55.005Z,12.60
2019-06-20T03:41:21.348Z,13.23
2019-06-20T03:43:50.778Z,13.60
2019-06-20T03:46:20.753Z,15.03
2019-06-20T03:48:48.171Z,13.67
2019-06-20T03:51:17.321Z,15.00
2019-06-20T03:53:43.734Z,14.17
2019-06-20T03:56:12.053Z,14.03
2019-06-20T03:58:42.787Z,15.30
2019-06-20T04:01:06.671Z,15.17
2019-06-20T04:03:33.078Z,15.00
2019-06-20T04:05:59.484Z,16.47
2019-06-20T04:08:25.907Z,16.03
2019-06-20T04:10:52.311Z,15.80
2019-06-20T04:13:18.760Z,16.00
2019-06-20T04:15:45.383Z,16.10
2019-06-20T04:18:11.803Z,15.27
2019-06-20T04:20:38.254Z,15.13
2019-06-20T04:23:04.670Z,14.03
2019-06-20T04:25:31.091Z,14.20
2019-06-20T04:27:57.558Z,14.80
2019-06-20T04:30:25.861Z,14.30
2019-06-20T04:32:52.333Z,14.03
2019-06-20T04:35:21.334Z,14.73
2019-06-20T04:37:46.999Z,14.40
2019-06-20T04:40:14.736Z,15.33
2019-06-20T04:42:42.998Z,15.57
2019-06-20T04:45:14.085Z,15.53
2019-06-20T04:47:42.428Z,14.53
2019-06-20T04:50:13.485Z,16.07
2019-06-20T04:52:41.834Z,15.83
2019-06-20T04:55:11.118Z,14.97
2019-06-20T04:57:37.520Z,13.97
2019-06-20T05:00:05.683Z,14.90
2019-06-20T05:02:35.087Z,13.63
2019-06-20T05:05:06.420Z,13.80
2019-06-20T05:07:40.750Z,13.87
2019-06-20T05:10:07.346Z,13.67
2019-06-20T05:12:36.022Z,14.07
2019-06-20T05:15:06.766Z,14.13
2019-06-20T05:17:34.266Z,15.07
2019-06-20T05:20:05.827Z,13.90
2019-06-20T05:22:32.242Z,15.37
2019-06-20T05:24:58.736Z,15.37
2019-06-20T05:27:25.148Z,13.50
2019-06-20T05:29:53.441Z,14.50
2019-06-20T05:32:21.749Z,12.80
2019-06-20T05:34:49.996Z,14.20
2019-06-20T05:37:16.453Z,13.43
2019-06-20T05:39:42.839Z,13.33
2019-06-20T05:42:09.189Z,13.63
2019-06-20T05:44:37.492Z,13.67
2019-06-20T05:47:12.426Z,12.90
2019-06-20T05:49:32.179Z,12.73
2019-06-20T05:52:00.546Z,13.00
2019-06-20T05:54:28.901Z,13.47
2019-06-20T05:56:58.247Z,13.40
2019-06-20T05:59:24.700Z,11.87
2019-06-20T06:01:56.120Z,12.37
2019-06-20T06:04:22.102Z,12.50
2019-06-20T06:06:48.533Z,12.40
2019-06-20T06:09:14.954Z,14.20
2019-06-20T06:11:52.382Z,13.93
2019-06-20T06:14:16.308Z,11.97
2019-06-20T06:16:45.840Z,13.20
2019-06-20T06:19:12.338Z,13.07
2019-06-20T06:21:39.507Z,11.97
2019-06-20T06:24:05.921Z,12.30
2019-06-20T06:26:32.376Z,13.17
2019-06-20T06:28:58.855Z,10.97
2019-06-20T06:31:28.298Z,10.53
2019-06-20T06:33:56.518Z,11.38
2019-06-20T06:36:24.824Z,12.33
2019-06-20T06:38:51.219Z,12.75
2019-06-20T06:41:18.619Z,11.05
2019-06-20T06:43:46.986Z,9.70
2019-06-20T06:46:13.489Z,10.53
2019-06-20T06:48:44.564Z,11.85
2019-06-20T06:51:10.957Z,10.00
2019-06-20T06:53:37.428Z,9.80
2019-06-20T06:56:03.850Z,9.10
2019-06-20T06:58:32.186Z,8.98
2019-06-20T07:00:58.574Z,8.78
2019-06-20T07:03:30.581Z,8.08
2019-06-20T07:05:58.723Z,7.87
2019-06-20T07:08:27.124Z,8.35
2019-06-20T07:10:53.392Z,9.08
2019-06-20T07:13:20.419Z,8.68
2019-06-20T07:15:48.710Z,7.72
2019-06-20T07:18:15.090Z,7.83
2019-06-20T07:20:41.491Z,7.58
2019-06-20T07:23:07.904Z,8.18
2019-06-20T07:25:34.330Z,8.18
2019-06-20T07:28:00.743Z,7.25
2019-06-20T07:30:27.430Z,6.40
2019-06-20T07:32:57.885Z,6.97
2019-06-20T07:35:24.242Z,7.25
2019-06-20T07:37:50.776Z,7.50
2019-06-20T07:40:17.802Z,7.55
2019-06-20T07:42:44.204Z,6.67
2019-06-20T07:45:11.673Z,6.05
2019-06-20T07:47:38.129Z,6.72
2019-06-20T07:50:09.153Z,7.30
2019-06-20T07:52:37.487Z,7.03
2019-06-20T07:55:10.772Z,6.37
2019-06-20T07:57:38.269Z,5.15
2019-06-20T08:00:10.255Z,6.45
2019-06-20T08:02:39.134Z,5.25
2019-06-20T08:05:06.064Z,5.42
2019-06-20T08:07:32.488Z,5.30
2019-06-20T08:10:03.308Z,5.10
2019-06-20T08:12:27.122Z,5.12
2019-06-20T08:14:53.483Z,6.03
2019-06-20T08:17:34.701Z,4.70
2019-06-20T08:19:51.857Z,6.15
2019-06-20T08:22:18.345Z,5.05
2019-06-20T08:24:44.854Z,5.67
2019-06-20T08:27:14.958Z,5.12
2019-06-20T08:29:41.084Z,5.37
2019-06-20T08:32:07.486Z,5.90
2019-06-20T08:34:33.964Z,5.42
2019-06-20T08:37:00.583Z,5.30
2019-06-20T08:39:29.355Z,5.95
2019-06-20T08:41:56.701Z,5.37
2019-06-20T08:44:23.647Z,5.00
2019-06-20T08:46:50.171Z,4.75
2019-06-20T08:49:18.585Z,4.72
2019-06-20T08:51:45.050Z,4.67
2019-06-20T08:54:12.143Z,4.78
2019-06-20T08:56:38.546Z,7.33
2019-06-20T08:59:04.996Z,6.47
2019-06-20T09:01:31.459Z,5.80
2019-06-20T09:03:58.506Z,5.20
2019-06-20T09:06:26.673Z,4.35
2019-06-20T09:08:54.064Z,4.25
2019-06-20T09:11:23.029Z,4.00
2019-06-20T09:13:49.410Z,4.53
2019-06-20T09:16:24.373Z,4.28
2019-06-20T09:18:44.048Z,6.47
2019-06-20T09:21:10.541Z,4.28
2019-06-20T09:23:38.144Z,4.20
2019-06-20T09:26:04.580Z,6.00
2019-06-20T09:28:31.027Z,6.15
2019-06-20T09:30:57.590Z,5.05
2019-06-20T09:33:26.459Z,7.17
2019-06-20T09:35:53.992Z,6.03
2019-06-20T09:38:21.315Z,5.30
2019-06-20T09:40:47.663Z,5.62
2019-06-20T09:43:27.218Z,5.28
2019-06-20T09:45:46.912Z,4.90
2019-06-20T09:48:13.347Z,5.12
2019-06-20T09:50:41.720Z,5.37
2019-06-20T09:53:08.041Z,5.10
2019-06-20T09:55:35.292Z,5.30
2019-06-20T09:58:03.728Z,5.37
2019-06-20T10:00:32.647Z,5.20
2019-06-20T10:03:01.134Z,4.75
2019-06-20T10:05:30.157Z,4.45
2019-06-20T10:07:58.538Z,4.30
2019-06-20T10:10:28.227Z,4.42
2019-06-20T10:12:55.851Z,4.00
2019-06-20T10:15:24.780Z,5.20
2019-06-20T10:17:51.705Z,4.12
2019-06-20T10:20:20.641Z,4.60
2019-06-20T10:22:48.471Z,4.33
2019-06-20T10:25:17.414Z,3.50
2019-06-20T10:27:48.326Z,4.20
2019-06-20T10:30:19.671Z,4.22
2019-06-20T10:32:48.671Z,4.47
2019-06-20T10:35:15.657Z,4.85
2019-06-20T10:37:45.593Z,5.22
2019-06-20T10:40:14.086Z,4.47
2019-06-20T10:42:44.403Z,3.77
2019-06-20T10:45:14.033Z,4.35
2019-06-20T10:47:40.616Z,3.83
2019-06-20T10:50:07.706Z,3.27
2019-06-20T10:52:35.199Z,3.17
2019-06-20T10:55:03.714Z,4.00
2019-06-20T10:57:30.244Z,4.60
2019-06-20T10:59:56.814Z,4.00
2019-06-20T11:02:26.902Z,4.22
2019-06-20T11:04:53.621Z,3.30
2019-06-20T11:07:20.245Z,3.10
2019-06-20T11:09:49.495Z,3.08
2019-06-20T11:12:19.208Z,3.12
2019-06-20T11:14:46.224Z,4.30
2019-06-20T11:17:12.734Z,4.87
2019-06-20T11:19:43.750Z,4.97
2019-06-20T11:22:12.143Z,4.75
2019-06-20T11:24:39.204Z,4.97
2019-06-20T11:27:07.653Z,6.10
2019-06-20T11:29:34.012Z,4.45
2019-06-20T11:32:00.448Z,4.22
2019-06-20T11:34:26.829Z,4.62
2019-06-20T11:36:53.262Z,5.58
2019-06-20T11:39:19.749Z,5.47
2019-06-20T11:41:46.173Z,5.58
2019-06-20T11:44:12.657Z,5.25
2019-06-20T11:46:40.663Z,5.45
2019-06-20T11:49:07.436Z,4.47
2019-06-20T11:51:37.501Z,4.62
2019-06-20T11:54:04.700Z,4.85
2019-06-20T11:56:31.429Z,4.53
2019-06-20T11:58:57.935Z,5.90
2019-06-20T12:01:32.583Z,5.12
2019-06-20T12:03:52.914Z,4.70
2019-06-20T12:06:21.263Z,5.17
2019-06-20T12:08:48.960Z,4.85
2019-06-20T12:11:19.536Z,3.98
2019-06-20T12:13:46.517Z,5.37
2019-06-20T12:16:17.465Z,4.95
2019-06-20T12:18:45.160Z,4.60
2019-06-20T12:21:11.743Z,6.30
2019-06-20T12:23:39.091Z,4.90
2019-06-20T12:26:06.939Z,3.70
2019-06-20T12:28:39.009Z,3.85
2019-06-20T12:31:18.839Z,3.47
2019-06-20T12:33:35.733Z,4.60
2019-06-20T12:36:03.996Z,3.45
2019-06-20T12:38:31.662Z,3.72
2019-06-20T12:40:58.044Z,3.60
2019-06-20T12:43:26.353Z,3.90
2019-06-20T12:45:52.866Z,3.33
2019-06-20T12:48:19.322Z,3.17
2019-06-20T12:50:45.923Z,3.83
2019-06-20T12:53:14.238Z,3.45
2019-06-20T12:55:40.668Z,3.55
2019-06-20T12:58:09.221Z,3.20
2019-06-20T13:00:41.363Z,3.20
2019-06-20T13:03:09.697Z,4.85
2019-06-20T13:05:36.194Z,4.95
2019-06-20T13:08:03.009Z,6.47
2019-06-20T13:10:29.601Z,7.45
2019-06-20T13:12:56.104Z,7.67
2019-06-20T13:15:24.832Z,3.85
2019-06-20T13:17:52.531Z,4.03
2019-06-20T13:20:19.450Z,4.25
2019-06-20T13:22:46.648Z,4.08
2019-06-20T13:25:15.621Z,4.15
2019-06-20T13:27:43.408Z,13.03
2019-06-20T13:30:10.812Z,5.87
2019-06-20T13:32:38.390Z,4.25
2019-06-20T13:35:09.326Z,5.50
2019-06-20T13:37:35.884Z,4.97
2019-06-20T13:40:06.305Z,4.72
2019-06-20T13:42:36.970Z,5.03
2019-06-20T13:45:13.118Z,4.65
2019-06-20T13:47:38.856Z,5.37
2019-06-20T13:50:06.441Z,6.87
2019-06-20T13:52:34.108Z,4.70
2019-06-20T13:55:00.761Z,4.80
2019-06-20T13:57:29.281Z,4.15
2019-06-20T13:59:55.713Z,4.17
2019-06-20T14:02:23.607Z,4.25
2019-06-20T14:04:52.000Z,6.30
2019-06-20T14:07:18.515Z,4.72
2019-06-20T14:09:46.477Z,4.28
2019-06-20T14:12:16.029Z,4.45
2019-06-20T14:14:43.917Z,4.80
2019-06-20T14:17:10.617Z,5.12
2019-06-20T14:19:37.156Z,4.47
2019-06-20T14:22:03.627Z,4.17
2019-06-20T14:24:30.382Z,4.65
2019-06-20T14:26:56.834Z,4.45
2019-06-20T14:29:28.439Z,4.70
2019-06-20T14:31:54.980Z,3.55
2019-06-20T14:34:21.823Z,3.80
2019-06-20T14:36:50.945Z,3.65
2019-06-20T14:39:20.542Z,3.67
2019-06-20T14:41:47.078Z,3.85
2019-06-20T14:44:15.098Z,4.37
2019-06-20T14:46:41.538Z,4.28
2019-06-20T14:49:09.847Z,4.83
2019-06-20T14:51:36.292Z,4.45
2019-06-20T14:54:04.901Z,4.25
2019-06-20T14:56:31.376Z,4.35
2019-06-20T14:58:57.971Z,4.00
2019-06-20T15:01:24.559Z,4.72
2019-06-20T15:03:51.642Z,5.05
2019-06-20T15:06:19.278Z,4.35
2019-06-20T15:08:47.172Z,4.33
2019-06-20T15:11:14.628Z,4.12
2019-06-20T15:13:41.126Z,4.40
2019-06-20T15:16:07.596Z,3.85
2019-06-20T15:18:34.243Z,3.83
2019-06-20T15:21:00.750Z,3.83
2019-06-20T15:23:27.241Z,2.83
2019-06-20T15:25:54.247Z,3.50
2019-06-20T15:28:21.876Z,5.50
2019-06-20T15:30:52.700Z,3.72
2019-06-20T15:33:20.338Z,3.42
2019-06-20T15:35:49.244Z,3.72
2019-06-20T15:38:17.074Z,3.58
2019-06-20T15:40:43.520Z,3.80
2019-06-20T15:43:09.907Z,4.00
2019-06-20T15:45:37.672Z,3.35
2019-06-20T15:48:08.884Z,3.40
2019-06-20T15:50:35.394Z,3.50
2019-06-20T15:53:01.762Z,3.65
2019-06-20T15:55:28.229Z,3.70
2019-06-20T15:57:56.658Z,3.80
2019-06-20T16:00:25.141Z,3.72
2019-06-20T16:02:51.661Z,3.90
2019-06-20T16:05:20.324Z,3.95
2019-06-20T16:07:47.049Z,3.83
2019-06-20T16:10:13.488Z,3.62
2019-06-20T16:12:42.014Z,6.42
2019-06-20T16:15:12.669Z,3.55
2019-06-20T16:17:40.810Z,3.95
2019-06-20T16:20:07.685Z,4.22
2019-06-20T16:22:36.410Z,4.53
2019-06-20T16:25:04.384Z,4.75
2019-06-20T16:27:32.845Z,4.47
2019-06-20T16:30:01.365Z,4.10
2019-06-20T16:32:28.252Z,5.00
2019-06-20T16:34:54.744Z,4.63
2019-06-20T16:37:21.257Z,5.13
2019-06-20T16:39:47.693Z,4.77
2019-06-20T16:42:14.120Z,6.60
2019-06-20T16:44:42.588Z,5.10
2019-06-20T16:47:12.792Z,4.70
2019-06-20T16:49:41.153Z,4.60
2019-06-20T16:52:07.647Z,4.80
2019-06-20T16:54:36.058Z,4.77
2019-06-20T16:57:03.228Z,5.10
2019-06-20T16:59:29.856Z,5.03
2019-06-20T17:01:56.768Z,4.50
2019-06-20T17:04:26.054Z,4.97
2019-06-20T17:06:52.425Z,4.77
2019-06-20T17:09:18.921Z,5.60
2019-06-20T17:11:45.347Z,5.23
2019-06-20T17:14:12.076Z,5.60
2019-06-20T17:16:39.744Z,5.53
2019-06-20T17:19:06.192Z,5.10
2019-06-20T17:21:32.602Z,5.43
2019-06-20T17:24:01.211Z,5.77
2019-06-20T17:26:30.183Z,6.27
2019-06-20T17:28:58.899Z,5.57
2019-06-20T17:31:25.116Z,5.33
2019-06-20T17:33:57.611Z,5.63
2019-06-20T17:36:19.909Z,4.93
2019-06-20T17:38:46.389Z,5.50
2019-06-20T17:41:14.773Z,5.57
2019-06-20T17:43:41.319Z,5.43
2019-06-20T17:46:09.903Z,6.90
2019-06-20T17:48:36.379Z,5.90
2019-06-20T17:51:03.035Z,6.17
2019-06-20T17:53:31.396Z,12.10
2019-06-20T17:55:58.403Z,9.77
2019-06-20T17:58:25.184Z,9.60
2019-06-20T18:00:54.138Z,8.10
2019-06-20T18:03:22.606Z,7.33
2019-06-20T18:05:51.021Z,6.63
2019-06-20T18:08:17.370Z,6.50
2019-06-20T18:10:45.834Z,13.77
2019-06-20T18:13:14.109Z,11.97
2019-06-20T18:15:40.813Z,34.27
2019-06-20T18:18:07.375Z,22.33
2019-06-20T18:20:34.257Z,10.40
2019-06-20T18:23:00.849Z,9.23
2019-06-20T18:25:31.442Z,7.63
2019-06-20T18:27:56.968Z,7.40
2019-06-20T18:30:41.712Z,10.20
2019-06-20T18:33:08.281Z,11.93
2019-06-20T18:35:34.703Z,8.23
2019-06-20T18:38:01.224Z,8.80
2019-06-20T18:40:28.177Z,10.07
2019-06-20T18:42:54.630Z,11.00
2019-06-20T18:45:23.147Z,10.83
2019-06-20T18:47:49.574Z,7.97
2019-06-20T18:50:18.805Z,8.00
2019-06-20T18:52:52.178Z,8.00
2019-06-20T18:55:16.005Z,7.57
2019-06-20T18:57:42.794Z,8.40
2019-06-20T19:00:13.145Z,9.67
2019-06-20T19:02:42.268Z,8.37
2019-06-20T19:05:11.010Z,9.17
2019-06-20T19:07:38.092Z,8.57
2019-06-20T19:10:09.709Z,8.97
2019-06-20T19:12:36.452Z,9.37
2019-06-20T19:15:12.463Z,8.27
2019-06-20T19:17:39.257Z,9.43
2019-06-20T19:20:09.489Z,10.10
2019-06-20T19:22:36.054Z,10.70
2019-06-20T19:25:05.758Z,11.80
2019-06-20T19:27:45.707Z,10.53
2019-06-20T19:30:00.637Z,11.00
2019-06-20T19:32:29.055Z,10.83
2019-06-20T19:35:02.381Z,11.60
2019-06-20T19:37:26.938Z,12.50
2019-06-20T19:39:55.434Z,11.37
2019-06-20T19:42:21.962Z,12.57
2019-06-20T19:44:48.515Z,13.77
2019-06-20T19:47:15.148Z,14.17
2019-06-20T19:49:42.959Z,13.93
2019-06-20T19:52:09.494Z,12.83
2019-06-20T19:54:35.941Z,14.97
2019-06-20T19:57:02.506Z,14.67
2019-06-20T19:59:32.804Z,12.47
2019-06-20T20:01:59.783Z,12.83
2019-06-20T20:04:26.285Z,13.37
2019-06-20T20:06:54.821Z,14.00
2019-06-20T20:09:21.500Z,14.93
2019-06-20T20:11:47.941Z,14.00
2019-06-20T20:14:14.386Z,15.40
2019-06-20T20:16:40.824Z,12.90
2019-06-20T20:19:09.174Z,13.90
2019-06-20T20:21:35.635Z,14.40
2019-06-20T20:24:02.031Z,14.00
2019-06-20T20:26:33.465Z,12.93
2019-06-20T20:28:59.881Z,14.43
2019-06-20T20:31:26.333Z,13.70
2019-06-20T20:33:52.766Z,14.37
2019-06-20T20:36:24.802Z,15.33
2019-06-20T20:38:49.584Z,14.37
2019-06-20T20:41:15.982Z,13.67
2019-06-20T20:43:42.788Z,14.67
2019-06-20T20:46:09.215Z,14.60
2019-06-20T20:48:35.768Z,15.00
2019-06-20T20:51:02.613Z,15.80
2019-06-20T20:53:29.139Z,17.00
2019-06-20T20:55:55.752Z,14.23
2019-06-20T20:58:22.192Z,18.10
2019-06-20T21:01:01.291Z,29.20
2019-06-20T21:03:29.708Z,20.73
2019-06-20T21:05:56.142Z,17.37
2019-06-20T21:08:22.649Z,18.60
2019-06-20T21:10:51.067Z,17.33
2019-06-20T21:13:19.458Z,19.27
2019-06-20T21:15:47.713Z,18.20
2019-06-20T21:18:17.453Z,17.90
2019-06-20T21:20:46.030Z,19.57
2019-06-20T21:23:14.314Z,19.97
2019-06-20T21:25:40.929Z,17.13
2019-06-20T21:28:07.564Z,17.87
2019-06-20T21:30:36.167Z,18.73
2019-06-20T21:33:02.648Z,18.53
2019-06-20T21:35:29.211Z,18.63
2019-06-20T21:37:55.738Z,18.50
2019-06-20T21:40:22.540Z,17.90
2019-06-20T21:42:51.127Z,19.80
2019-06-20T21:45:20.849Z,17.30
2019-06-20T21:47:49.162Z,19.87
2019-06-20T21:50:15.649Z,20.90
2019-06-20T21:52:44.153Z,19.30
2019-06-20T21:55:10.795Z,19.43
2019-06-20T21:57:37.197Z,19.40
2019-06-20T22:00:22.983Z,20.97
2019-06-20T22:02:51.422Z,19.07
2019-06-20T22:05:19.489Z,18.70
2019-06-20T22:07:46.167Z,18.50
2019-06-20T22:10:12.976Z,19.67
2019-06-20T22:12:39.430Z,20.87
2019-06-20T22:15:10.164Z,19.40
2019-06-20T22:17:39.667Z,28.13
2019-06-20T22:20:06.807Z,29.73
2019-06-20T22:22:33.243Z,24.87
2019-06-20T22:24:59.640Z,22.77
2019-06-20T22:27:29.787Z,21.13
2019-06-20T22:29:57.201Z,22.80
2019-06-20T22:32:23.684Z,23.63
2019-06-20T22:34:54.998Z,23.40
2019-06-20T22:37:25.036Z,21.10
2019-06-20T22:39:51.432Z,20.70
2019-06-20T22:42:18.003Z,20.93
2019-06-20T22:44:44.431Z,21.93
2019-06-20T22:47:10.902Z,21.33
2019-06-20T22:49:37.350Z,20.87
2019-06-20T22:52:03.790Z,18.67
2019-06-20T22:54:30.248Z,17.43
2019-06-20T22:56:56.702Z,16.03
2019-06-20T22:59:23.118Z,17.00
2019-06-20T23:01:49.563Z,16.93
2019-06-20T23:04:16.011Z,19.83
2019-06-20T23:06:56.182Z,21.37
2019-06-20T23:09:15.600Z,19.77
2019-06-20T23:11:42.046Z,18.67
2019-06-20T23:14:08.521Z,18.20
2019-06-20T23:16:36.046Z,17.77
2019-06-20T23:19:02.615Z,17.50
2019-06-20T23:21:29.023Z,18.60
2019-06-20T23:23:55.510Z,19.43
2019-06-20T23:26:21.920Z,19.43
2019-06-20T23:28:50.159Z,19.17
2019-06-20T23:31:16.566Z,18.50
2019-06-20T23:33:42.955Z,20.93
2019-06-20T23:36:09.325Z,21.10
2019-06-20T23:38:35.764Z,20.00
2019-06-20T23:41:02.251Z,19.47
2019-06-20T23:43:28.610Z,19.77
2019-06-20T23:45:55.048Z,19.90
2019-06-20T23:48:21.494Z,22.17
2019-06-20T23:50:47.925Z,19.33
2019-06-20T23:53:27.567Z,17.33
2019-06-20T23:55:54.000Z,17.10
2019-06-20T23:58:21.515Z,17.70
